createdAt,value
2023-04-27T00:00:22.697Z,96144.78
2023-04-27T00:01:24.804Z,96145.66
2023-04-27T00:02:29.688Z,96147.38
2023-04-27T00:03:32.211Z,96148.22
2023-04-27T00:04:37.883Z,96147.47
2023-04-27T00:05:40.358Z,96141.50
2023-04-27T00:06:45.240Z,96145.00
2023-04-27T00:07:47.297Z,96147.66
2023-04-27T00:08:51.977Z,96145.13
2023-04-27T00:09:54.075Z,96140.91
2023-04-27T00:10:59.607Z,96144.38
2023-04-27T00:12:04.962Z,96140.16
2023-04-27T00:13:09.653Z,96142.75
2023-04-27T00:14:11.800Z,96142.78
2023-04-27T00:15:16.492Z,96141.09
2023-04-27T00:16:18.690Z,96136.75
2023-04-27T00:17:23.481Z,96138.41
2023-04-27T00:18:25.577Z,96136.56
2023-04-27T00:19:30.809Z,96143.38
2023-04-27T00:20:34.111Z,96136.47
2023-04-27T00:21:38.857Z,96143.19
2023-04-27T00:22:41.320Z,96139.66
2023-04-27T00:23:45.980Z,96142.06
2023-04-27T00:24:48.159Z,96136.88
2023-04-27T00:25:52.952Z,96138.72
2023-04-27T00:26:55.062Z,96137.00
2023-04-27T00:28:02.378Z,96132.63
2023-04-27T00:29:04.726Z,96132.72
2023-04-27T00:30:11.205Z,96139.66
2023-04-27T00:31:13.325Z,96136.34
2023-04-27T00:32:18.041Z,96127.84
2023-04-27T00:33:20.623Z,96135.53
2023-04-27T00:34:25.317Z,96128.78
2023-04-27T00:35:27.405Z,96131.41
2023-04-27T00:36:32.627Z,96134.88
2023-04-27T00:37:34.708Z,96128.16
2023-04-27T00:38:40.026Z,96130.00
2023-04-27T00:39:42.280Z,96127.50
2023-04-27T00:40:52.929Z,96124.13
2023-04-27T00:41:57.669Z,96122.41
2023-04-27T00:43:02.342Z,96126.00
2023-04-27T00:44:07.018Z,96130.22
2023-04-27T00:45:13.742Z,96126.00
2023-04-27T00:46:17.725Z,96130.22
2023-04-27T00:47:23.211Z,96126.78
2023-04-27T00:48:26.233Z,96124.25
2023-04-27T00:49:31.042Z,96127.75
2023-04-27T00:50:33.388Z,96122.72
2023-04-27T00:51:38.449Z,96129.63
2023-04-27T00:52:42.057Z,96130.59
2023-04-27T00:53:47.003Z,96127.19
2023-04-27T00:54:51.790Z,96128.97
2023-04-27T00:55:58.042Z,96123.81
2023-04-27T00:57:00.237Z,96127.28
2023-04-27T00:58:12.858Z,96127.31
2023-04-27T00:59:15.135Z,96121.44
2023-04-27T01:00:20.304Z,96118.13
2023-04-27T01:01:22.509Z,96119.09
2023-04-27T01:02:28.005Z,96125.16
2023-04-27T01:03:31.041Z,96118.47
2023-04-27T01:04:37.082Z,96127.09
2023-04-27T01:05:39.878Z,96122.88
2023-04-27T01:06:51.994Z,96129.00
2023-04-27T01:07:54.182Z,96134.16
2023-04-27T01:08:58.872Z,96127.16
2023-04-27T01:10:02.538Z,96125.44
2023-04-27T01:11:07.647Z,96126.28
2023-04-27T01:12:09.828Z,96128.91
2023-04-27T01:13:17.124Z,96121.19
2023-04-27T01:14:19.298Z,96126.28
2023-04-27T01:15:24.312Z,96121.22
2023-04-27T01:16:26.680Z,96116.19
2023-04-27T01:17:31.395Z,96121.44
2023-04-27T01:18:33.900Z,96132.50
2023-04-27T01:19:40.538Z,96125.78
2023-04-27T01:20:43.419Z,96128.31
2023-04-27T01:21:48.081Z,96130.78
2023-04-27T01:22:50.211Z,96128.28
2023-04-27T01:23:57.804Z,96126.56
2023-04-27T01:24:59.890Z,96129.19
2023-04-27T01:26:06.923Z,96124.06
2023-04-27T01:27:09.281Z,96125.84
2023-04-27T01:28:13.916Z,96124.09
2023-04-27T01:29:15.999Z,96130.13
2023-04-27T01:30:21.001Z,96119.84
2023-04-27T01:31:23.165Z,96126.75
2023-04-27T01:32:28.037Z,96132.72
2023-04-27T01:33:30.234Z,96126.66
2023-04-27T01:34:35.032Z,96131.78
2023-04-27T01:35:37.314Z,96132.69
2023-04-27T01:36:41.949Z,96128.38
2023-04-27T01:37:44.102Z,96122.34
2023-04-27T01:38:48.898Z,96126.66
2023-04-27T01:39:53.632Z,96124.97
2023-04-27T01:42:17.887Z,96122.53
2023-04-27T01:43:22.510Z,96122.44
2023-04-27T01:44:25.162Z,96130.22
2023-04-27T01:45:29.796Z,96120.72
2023-04-27T01:46:31.912Z,96128.38
2023-04-27T01:47:36.676Z,96124.06
2023-04-27T01:48:40.329Z,96126.63
2023-04-27T01:49:46.114Z,96132.53
2023-04-27T01:50:48.258Z,96124.91
2023-04-27T01:51:52.939Z,96127.47
2023-04-27T01:52:55.440Z,96124.91
2023-04-27T01:54:03.495Z,96121.53
2023-04-27T01:55:09.317Z,96118.94
2023-04-27T01:56:14.045Z,96123.22
2023-04-27T01:57:16.662Z,96119.00
2023-04-27T01:58:21.372Z,96124.25
2023-04-27T01:59:23.456Z,96125.16
2023-04-27T02:00:28.404Z,96129.50
2023-04-27T02:01:31.624Z,96130.31
2023-04-27T02:02:36.522Z,96130.22
2023-04-27T02:03:38.956Z,96136.22
2023-04-27T02:04:45.364Z,96132.81
2023-04-27T02:05:48.215Z,96133.72
2023-04-27T02:06:52.904Z,96130.44
2023-04-27T02:07:55.016Z,96138.88
2023-04-27T02:08:59.848Z,96137.94
2023-04-27T02:10:01.931Z,96133.66
2023-04-27T02:11:09.490Z,96128.50
2023-04-27T02:12:11.969Z,96131.94
2023-04-27T02:13:16.940Z,96134.50
2023-04-27T02:14:19.009Z,96136.94
2023-04-27T02:15:23.734Z,96137.91
2023-04-27T02:16:26.157Z,96137.03
2023-04-27T02:17:31.973Z,96137.91
2023-04-27T02:18:35.325Z,96140.50
2023-04-27T02:19:40.058Z,96145.56
2023-04-27T02:20:42.579Z,96143.09
2023-04-27T02:21:47.244Z,96144.81
2023-04-27T02:22:49.549Z,96139.78
2023-04-27T02:23:54.318Z,96141.50
2023-04-27T02:24:56.505Z,96137.19
2023-04-27T02:26:07.209Z,96139.78
2023-04-27T02:27:11.896Z,96147.47
2023-04-27T02:28:17.290Z,96137.19
2023-04-27T02:29:19.931Z,96135.56
2023-04-27T02:30:25.070Z,96139.13
2023-04-27T02:31:30.128Z,96135.75
2023-04-27T02:32:32.304Z,96144.34
2023-04-27T02:33:36.975Z,96142.69
2023-04-27T02:34:39.053Z,96134.19
2023-04-27T02:35:43.719Z,96140.13
2023-04-27T02:36:45.942Z,96137.66
2023-04-27T02:37:50.590Z,96134.25
2023-04-27T02:38:52.689Z,96141.88
2023-04-27T02:39:58.322Z,96129.75
2023-04-27T02:41:01.056Z,96139.25
2023-04-27T02:42:05.854Z,96142.69
2023-04-27T02:43:10.843Z,96138.31
2023-04-27T02:44:15.755Z,96148.59
2023-04-27T02:45:18.200Z,96142.59
2023-04-27T02:46:23.718Z,96148.59
2023-04-27T02:47:29.201Z,96143.38
2023-04-27T02:48:34.283Z,96147.75
2023-04-27T02:49:38.049Z,96155.53
2023-04-27T02:50:44.658Z,96143.53
2023-04-27T02:51:46.726Z,96149.50
2023-04-27T02:52:51.344Z,96148.59
2023-04-27T02:53:53.711Z,96147.72
2023-04-27T02:55:01.601Z,96149.50
2023-04-27T02:58:01.784Z,96149.50
2023-04-27T02:59:06.898Z,96139.13
2023-04-27T03:00:13.685Z,96145.94
2023-04-27T03:01:17.501Z,96144.28
2023-04-27T03:02:22.432Z,96150.31
2023-04-27T03:03:24.927Z,96148.56
2023-04-27T03:04:30.163Z,96149.41
2023-04-27T03:05:32.481Z,96155.44
2023-04-27T03:06:37.252Z,96165.72
2023-04-27T03:07:39.355Z,96167.38
2023-04-27T03:08:44.359Z,96158.78
2023-04-27T03:09:46.582Z,96157.94
2023-04-27T03:10:51.215Z,96156.22
2023-04-27T03:11:53.482Z,96158.84
2023-04-27T03:12:58.233Z,96163.16
2023-04-27T03:14:00.293Z,96163.91
2023-04-27T03:15:08.178Z,96159.59
2023-04-27T03:16:11.676Z,96157.91
2023-04-27T03:19:08.809Z,96158.09
2023-04-27T03:20:15.461Z,96160.69
2023-04-27T03:21:17.540Z,96159.03
2023-04-27T03:22:22.280Z,96153.91
2023-04-27T03:23:24.517Z,96151.34
2023-04-27T03:24:29.668Z,96158.16
2023-04-27T03:25:31.740Z,96162.44
2023-04-27T03:26:36.420Z,96152.97
2023-04-27T03:27:38.546Z,96156.31
2023-04-27T03:28:43.680Z,96156.31
2023-04-27T03:29:46.024Z,96154.47
2023-04-27T03:30:53.331Z,96154.47
2023-04-27T03:31:57.737Z,96156.13
2023-04-27T03:33:02.572Z,96152.72
2023-04-27T03:34:04.661Z,96156.00
2023-04-27T03:35:16.009Z,96162.06
2023-04-27T03:36:29.892Z,96150.94
2023-04-27T03:37:32.942Z,96158.66
2023-04-27T03:38:37.735Z,96156.91
2023-04-27T03:39:40.156Z,96162.06
2023-04-27T03:40:44.978Z,96168.03
2023-04-27T03:41:47.137Z,96161.16
2023-04-27T03:42:51.811Z,96164.56
2023-04-27T03:43:53.894Z,96168.78
2023-04-27T03:44:58.513Z,96160.16
2023-04-27T03:46:03.224Z,96162.81
2023-04-27T03:47:09.880Z,96156.75
2023-04-27T03:48:12.241Z,96158.47
2023-04-27T03:49:16.872Z,96160.22
2023-04-27T03:50:43.122Z,96162.81
2023-04-27T03:51:47.912Z,96158.47
2023-04-27T03:52:50.114Z,96161.88
2023-04-27T03:53:54.789Z,96159.25
2023-04-27T03:54:56.953Z,96160.97
2023-04-27T03:56:01.577Z,96160.13
2023-04-27T03:57:04.632Z,96159.25
2023-04-27T03:58:10.507Z,96160.97
2023-04-27T03:59:15.415Z,96157.53
2023-04-27T04:00:18.617Z,96159.22
2023-04-27T04:01:25.906Z,96160.88
2023-04-27T04:02:28.217Z,96159.22
2023-04-27T04:03:33.189Z,96161.03
2023-04-27T04:04:35.491Z,96155.91
2023-04-27T04:05:40.330Z,96155.00
2023-04-27T04:06:42.466Z,96157.47
2023-04-27T04:07:47.390Z,96159.19
2023-04-27T04:08:49.558Z,96161.69
2023-04-27T04:09:54.228Z,96160.78
2023-04-27T04:10:59.609Z,96166.75
2023-04-27T04:12:02.221Z,96167.59
2023-04-27T04:13:07.240Z,96162.41
2023-04-27T04:14:09.321Z,96174.25
2023-04-27T04:15:14.139Z,96170.03
2023-04-27T04:16:16.340Z,96166.63
2023-04-27T04:17:23.675Z,96170.03
2023-04-27T04:18:25.805Z,96164.06
2023-04-27T04:19:30.520Z,96162.41
2023-04-27T04:20:34.734Z,96163.22
2023-04-27T04:21:39.825Z,96158.09
2023-04-27T04:22:41.881Z,96163.00
2023-04-27T04:23:46.511Z,96161.22
2023-04-27T04:24:48.614Z,96165.41
2023-04-27T04:25:53.562Z,96164.44
2023-04-27T04:26:56.138Z,96161.84
2023-04-27T04:28:01.170Z,96167.72
2023-04-27T04:29:04.029Z,96171.97
2023-04-27T04:30:10.757Z,96171.78
2023-04-27T04:31:13.692Z,96163.28
2023-04-27T04:32:20.122Z,96170.09
2023-04-27T04:33:27.388Z,96171.00
2023-04-27T04:34:29.554Z,96165.88
2023-04-27T04:35:34.816Z,96174.34
2023-04-27T04:36:36.961Z,96166.72
2023-04-27T04:37:41.705Z,96170.09
2023-04-27T04:38:46.384Z,96170.94
2023-04-27T04:39:48.455Z,96177.63
2023-04-27T04:40:53.262Z,96178.44
2023-04-27T04:41:55.291Z,96181.72
2023-04-27T04:43:00.011Z,96175.69
2023-04-27T04:44:02.092Z,96177.44
2023-04-27T04:45:08.017Z,96183.41
2023-04-27T04:46:40.039Z,96179.09
2023-04-27T04:47:42.235Z,96172.97
2023-04-27T04:48:49.484Z,96185.75
2023-04-27T04:49:54.159Z,96181.44
2023-04-27T04:50:57.389Z,96183.13
2023-04-27T04:52:02.061Z,96183.06
2023-04-27T04:53:04.185Z,96186.28
2023-04-27T04:54:08.868Z,96183.59
2023-04-27T04:55:12.069Z,96179.25
2023-04-27T04:56:17.601Z,96180.06
2023-04-27T04:57:37.521Z,96183.47
2023-04-27T04:58:39.964Z,96185.06
2023-04-27T04:59:44.671Z,96182.38
2023-04-27T05:00:46.724Z,96176.38
2023-04-27T05:01:51.411Z,96177.25
2023-04-27T05:02:53.753Z,96181.50
2023-04-27T05:04:01.441Z,96178.84
2023-04-27T05:05:04.335Z,96188.13
2023-04-27T05:06:09.789Z,96180.31
2023-04-27T05:07:14.699Z,96182.75
2023-04-27T05:08:20.046Z,96191.19
2023-04-27T05:10:03.701Z,96189.31
2023-04-27T05:11:05.940Z,96185.66
2023-04-27T05:12:11.072Z,96192.31
2023-04-27T05:13:13.189Z,96188.78
2023-04-27T05:14:18.359Z,96190.34
2023-04-27T05:15:21.108Z,96198.78
2023-04-27T05:16:26.676Z,96194.31
2023-04-27T05:17:28.864Z,96186.44
2023-04-27T05:18:33.572Z,96189.69
2023-04-27T05:19:38.344Z,96194.72
2023-04-27T05:20:43.127Z,96186.81
2023-04-27T05:21:45.625Z,96190.88
2023-04-27T05:22:50.502Z,96191.59
2023-04-27T05:23:55.235Z,96188.03
2023-04-27T05:24:57.725Z,96184.47
2023-04-27T05:27:18.233Z,96186.66
2023-04-27T05:28:20.990Z,96189.97
2023-04-27T05:29:26.036Z,96187.22
2023-04-27T05:30:28.236Z,96182.72
2023-04-27T05:31:32.917Z,96190.13
2023-04-27T05:32:37.024Z,96189.91
2023-04-27T05:33:41.806Z,96188.84
2023-04-27T05:34:49.306Z,96186.00
2023-04-27T05:35:54.248Z,96187.56
2023-04-27T05:36:56.310Z,96192.50
2023-04-27T05:38:01.094Z,96182.88
2023-04-27T05:39:03.674Z,96186.94
2023-04-27T05:40:10.484Z,96184.13
2023-04-27T05:41:15.176Z,96180.38
2023-04-27T05:42:17.286Z,96181.78
2023-04-27T05:43:22.018Z,96173.88
2023-04-27T05:44:30.010Z,96183.91
2023-04-27T05:45:34.672Z,96181.91
2023-04-27T05:46:38.764Z,96184.25
2023-04-27T05:47:43.733Z,96179.75
2023-04-27T05:48:46.062Z,96183.91
2023-04-27T05:49:56.452Z,96179.34
2023-04-27T05:51:01.984Z,96178.25
2023-04-27T05:52:07.059Z,96182.41
2023-04-27T05:54:50.070Z,96183.44
2023-04-27T05:57:57.296Z,96178.50
2023-04-27T05:59:06.841Z,96181.72
2023-04-27T06:00:13.448Z,96174.63
2023-04-27T06:01:15.527Z,96171.84
2023-04-27T06:02:20.696Z,96179.53
2023-04-27T06:03:23.553Z,96181.81
2023-04-27T06:04:29.210Z,96186.91
2023-04-27T06:05:34.607Z,96190.19
2023-04-27T06:06:39.603Z,96189.03
2023-04-27T06:07:43.954Z,96182.81
2023-04-27T06:08:48.589Z,96186.00
2023-04-27T06:11:47.668Z,96195.75
2023-04-27T06:12:52.417Z,96197.13
2023-04-27T06:13:54.568Z,96196.88
2023-04-27T06:14:59.198Z,96197.63
2023-04-27T06:16:01.758Z,96193.88
2023-04-27T06:17:07.171Z,96197.84
2023-04-27T06:18:09.294Z,96204.47
2023-04-27T06:19:14.455Z,96195.50
2023-04-27T06:20:16.777Z,96195.97
2023-04-27T06:21:24.046Z,96193.00
2023-04-27T06:22:26.406Z,96190.88
2023-04-27T06:23:31.758Z,96188.72
2023-04-27T06:24:36.537Z,96200.25
2023-04-27T06:25:41.765Z,96197.16
2023-04-27T06:26:43.829Z,96199.25
2023-04-27T06:27:48.530Z,96188.38
2023-04-27T06:28:53.231Z,96189.53
2023-04-27T06:31:13.742Z,96179.91
2023-04-27T06:32:15.854Z,96172.19
2023-04-27T06:33:20.639Z,96170.31
2023-04-27T06:34:22.763Z,96183.66
2023-04-27T06:35:27.397Z,96166.31
2023-04-27T06:36:32.102Z,96175.94
2023-04-27T06:37:36.744Z,96174.47
2023-04-27T06:38:38.886Z,96175.75
2023-04-27T06:39:43.531Z,96163.03
2023-04-27T06:40:45.980Z,96168.44
2023-04-27T06:41:50.573Z,96165.28
2023-04-27T06:42:52.816Z,96164.78
2023-04-27T06:43:59.042Z,96167.63
2023-04-27T06:45:01.548Z,96166.81
2023-04-27T06:46:06.506Z,96176.53
2023-04-27T06:47:08.652Z,96170.66
2023-04-27T06:48:13.589Z,96152.69
2023-04-27T06:49:15.883Z,96150.50
2023-04-27T06:50:20.928Z,96147.19
2023-04-27T06:51:25.551Z,96134.41
2023-04-27T06:52:32.231Z,96143.72
2023-04-27T06:53:37.080Z,96130.16
2023-04-27T06:54:39.088Z,96134.09
2023-04-27T06:55:45.580Z,96130.50
2023-04-27T06:56:48.998Z,96130.00
2023-04-27T06:57:53.704Z,96127.59
2023-04-27T06:58:55.756Z,96134.72
2023-04-27T07:00:00.520Z,96145.47
2023-04-27T07:01:06.109Z,96150.69
2023-04-27T07:02:08.375Z,96161.75
2023-04-27T07:03:13.393Z,96157.16
2023-04-27T07:04:18.345Z,96140.50
2023-04-27T07:05:23.366Z,96131.97
2023-04-27T07:06:26.210Z,96128.53
2023-04-27T07:07:33.419Z,96136.63
2023-04-27T07:08:38.062Z,96139.22
2023-04-27T07:09:40.087Z,96130.78
2023-04-27T07:10:44.746Z,96130.88
2023-04-27T07:11:46.906Z,96124.84
2023-04-27T07:12:51.811Z,96120.88
2023-04-27T07:13:53.989Z,96126.06
2023-04-27T07:14:58.630Z,96131.16
2023-04-27T07:16:03.474Z,96125.19
2023-04-27T07:17:05.582Z,96131.31
2023-04-27T07:18:12.388Z,96130.53
2023-04-27T07:19:14.676Z,96123.25
2023-04-27T07:20:19.545Z,96137.72
2023-04-27T07:21:24.516Z,96138.91
2023-04-27T07:22:26.906Z,96129.53
2023-04-27T07:23:34.650Z,96127.25
2023-04-27T07:24:36.881Z,96123.41
2023-04-27T07:25:42.159Z,96119.09
2023-04-27T07:26:44.836Z,96126.09
2023-04-27T07:27:49.730Z,96109.63
2023-04-27T07:28:51.846Z,96109.44
2023-04-27T07:29:56.892Z,96122.19
2023-04-27T07:31:01.619Z,96144.00
2023-04-27T07:32:06.355Z,96113.41
2023-04-27T07:33:11.625Z,96137.50
2023-04-27T07:34:13.814Z,96129.16
2023-04-27T07:35:18.545Z,96127.47
2023-04-27T07:36:20.712Z,96143.47
2023-04-27T07:37:26.938Z,96143.72
2023-04-27T07:38:34.400Z,96132.59
2023-04-27T07:39:36.977Z,96144.72
2023-04-27T07:40:43.844Z,96160.84
2023-04-27T07:41:46.836Z,96154.44
2023-04-27T07:42:51.482Z,96159.47
2023-04-27T07:43:58.271Z,96163.28
2023-04-27T07:45:00.341Z,96155.47
2023-04-27T07:46:05.877Z,96156.53
2023-04-27T07:47:08.205Z,96155.34
2023-04-27T07:48:12.948Z,96157.19
2023-04-27T07:49:15.774Z,96151.47
2023-04-27T07:50:24.584Z,96146.09
2023-04-27T07:51:28.875Z,96150.84
2023-04-27T07:52:33.631Z,96155.28
2023-04-27T07:53:40.993Z,96132.50
2023-04-27T07:54:43.468Z,96119.44
2023-04-27T07:55:48.061Z,96163.97
2023-04-27T07:56:50.137Z,96149.56
2023-04-27T07:57:55.323Z,96147.16
2023-04-27T07:58:59.994Z,96145.97
2023-04-27T08:00:08.152Z,96131.25
2023-04-27T08:01:12.976Z,96150.75
2023-04-27T08:03:23.081Z,96119.00
2023-04-27T08:04:25.622Z,96120.88
2023-04-27T08:05:30.714Z,96134.56
2023-04-27T08:06:36.951Z,96117.63
2023-04-27T08:07:44.836Z,96132.25
2023-04-27T08:08:49.915Z,96134.69
2023-04-27T08:09:54.933Z,96139.13
2023-04-27T08:10:59.761Z,96134.75
2023-04-27T08:12:03.157Z,96138.44
2023-04-27T08:13:10.073Z,96159.13
2023-04-27T08:14:15.984Z,96158.03
2023-04-27T08:15:18.397Z,96142.22
2023-04-27T08:16:23.153Z,96133.84
2023-04-27T08:17:25.774Z,96138.94
2023-04-27T08:19:52.092Z,96149.31
2023-04-27T08:20:54.217Z,96130.00
2023-04-27T08:21:59.408Z,96134.53
2023-04-27T08:23:04.241Z,96131.84
2023-04-27T08:24:09.205Z,96144.00
2023-04-27T08:25:13.858Z,96143.25
2023-04-27T08:26:16.436Z,96124.13
2023-04-27T08:27:21.311Z,96126.09
2023-04-27T08:28:25.954Z,96126.19
2023-04-27T08:29:29.256Z,96112.53
2023-04-27T08:30:34.517Z,96111.34
2023-04-27T08:31:39.332Z,96126.50
2023-04-27T08:32:41.499Z,96124.31
2023-04-27T08:33:47.429Z,96110.16
2023-04-27T08:34:52.085Z,96098.00
2023-04-27T08:35:54.707Z,96110.41
2023-04-27T08:37:00.797Z,96103.75
2023-04-27T08:38:03.157Z,96087.69
2023-04-27T08:39:09.301Z,96111.06
2023-04-27T08:40:17.254Z,96109.72
2023-04-27T08:41:22.409Z,96121.63
2023-04-27T08:42:27.277Z,96129.50
2023-04-27T08:43:36.495Z,96107.03
2023-04-27T08:44:40.215Z,96098.25
2023-04-27T08:45:51.287Z,96112.13
2023-04-27T08:46:53.568Z,96125.28
2023-04-27T08:47:58.584Z,96133.44
2023-04-27T08:49:00.764Z,96119.75
2023-04-27T08:51:58.277Z,96103.25
2023-04-27T08:53:03.154Z,96089.34
2023-04-27T08:54:05.321Z,96081.69
2023-04-27T08:55:11.202Z,96103.03
2023-04-27T08:56:18.436Z,96103.13
2023-04-27T08:57:20.657Z,96071.75
2023-04-27T09:00:27.527Z,96080.84
2023-04-27T09:01:29.635Z,96089.66
2023-04-27T09:02:34.468Z,96082.72
2023-04-27T09:03:40.114Z,96091.03
2023-04-27T09:04:42.602Z,96068.84
2023-04-27T09:06:03.398Z,96074.75
2023-04-27T09:07:18.730Z,96076.94
2023-04-27T09:08:20.817Z,96098.38
2023-04-27T09:09:48.551Z,96086.84
2023-04-27T09:10:51.546Z,96091.03
2023-04-27T09:11:58.969Z,96065.00
2023-04-27T09:13:01.590Z,96089.19
2023-04-27T09:14:18.172Z,96064.44
2023-04-27T09:15:20.266Z,96069.41
2023-04-27T09:16:26.862Z,96048.09
2023-04-27T09:17:33.979Z,96033.38
2023-04-27T09:18:38.141Z,96032.78
2023-04-27T09:19:42.896Z,96042.63
2023-04-27T09:20:48.183Z,96034.66
2023-04-27T09:21:51.886Z,96049.88
2023-04-27T09:22:58.784Z,96053.63
2023-04-27T09:24:13.357Z,96031.78
2023-04-27T09:25:32.097Z,96030.84
2023-04-27T09:26:34.252Z,96034.31
2023-04-27T09:27:47.986Z,96003.28
2023-04-27T09:28:54.341Z,96012.63
2023-04-27T09:29:56.377Z,96018.78
2023-04-27T09:31:03.071Z,96029.91
2023-04-27T09:32:16.969Z,96046.81
2023-04-27T09:33:26.187Z,96015.88
2023-04-27T09:34:42.130Z,96020.81
2023-04-27T09:35:49.476Z,96028.88
2023-04-27T09:36:54.342Z,96028.84
2023-04-27T09:37:59.381Z,95980.31
2023-04-27T09:39:07.389Z,96032.47
2023-04-27T09:40:11.288Z,96016.53
2023-04-27T09:41:16.698Z,96002.00
2023-04-27T09:42:18.953Z,95984.56
2023-04-27T09:43:27.685Z,95979.78
2023-04-27T09:44:30.813Z,95963.50
2023-04-27T09:45:37.426Z,95961.69
2023-04-27T09:46:39.843Z,95988.66
2023-04-27T09:47:44.946Z,95961.31
2023-04-27T09:48:50.638Z,95962.38
2023-04-27T09:49:52.968Z,95961.06
2023-04-27T09:50:57.637Z,95961.38
2023-04-27T09:51:59.853Z,95948.53
2023-04-27T09:53:05.919Z,95943.25
2023-04-27T09:54:14.091Z,95966.84
2023-04-27T09:55:22.250Z,95956.03
2023-04-27T09:56:35.581Z,95981.38
2023-04-27T09:57:43.635Z,95952.97
2023-04-27T09:59:09.043Z,95992.53
2023-04-27T10:00:23.702Z,95967.19
2023-04-27T10:01:37.722Z,96027.31
2023-04-27T10:02:53.377Z,96013.53
2023-04-27T10:04:23.185Z,96014.63
2023-04-27T10:05:51.361Z,96024.13
2023-04-27T10:07:03.866Z,96013.97
2023-04-27T10:08:09.912Z,96007.28
2023-04-27T10:09:12.956Z,96009.09
2023-04-27T10:10:21.233Z,96003.28
2023-04-27T10:11:40.983Z,95980.66
2023-04-27T10:12:45.738Z,96009.75
2023-04-27T10:13:58.912Z,96014.13
2023-04-27T10:15:15.557Z,96010.84
2023-04-27T10:16:18.006Z,95976.09
2023-04-27T10:17:28.027Z,95955.06
2023-04-27T10:18:33.786Z,95970.22
2023-04-27T10:19:35.908Z,95935.78
2023-04-27T10:20:41.925Z,95976.31
2023-04-27T10:21:55.323Z,95947.31
2023-04-27T10:23:01.043Z,95940.22
2023-04-27T10:24:11.445Z,95956.38
2023-04-27T10:25:19.971Z,95952.97
2023-04-27T10:26:25.406Z,95925.09
2023-04-27T10:27:30.077Z,95903.91
2023-04-27T10:28:41.696Z,95907.59
2023-04-27T10:29:46.828Z,95894.69
2023-04-27T10:30:52.210Z,95895.34
2023-04-27T10:31:54.422Z,95898.91
2023-04-27T10:33:00.697Z,95897.38
2023-04-27T10:34:10.112Z,95917.72
2023-04-27T10:35:14.802Z,95921.91
2023-04-27T10:36:16.925Z,95899.22
2023-04-27T10:37:25.675Z,95907.19
2023-04-27T10:38:33.323Z,95911.53
2023-04-27T10:39:47.938Z,95907.59
2023-04-27T10:41:01.733Z,95907.91
2023-04-27T10:42:55.040Z,95908.91
2023-04-27T10:45:41.152Z,95929.16
2023-04-27T10:46:52.661Z,95917.81
2023-04-27T10:48:02.338Z,95911.22
2023-04-27T10:49:29.033Z,95936.72
2023-04-27T10:50:34.567Z,95963.03
2023-04-27T10:51:36.794Z,95914.16
2023-04-27T10:52:44.061Z,95888.50
2023-04-27T10:53:48.804Z,95890.50
2023-04-27T10:54:53.485Z,95921.09
2023-04-27T10:55:59.079Z,95915.50
2023-04-27T10:57:09.018Z,95921.22
2023-04-27T10:58:13.719Z,95914.91
2023-04-27T10:59:16.037Z,95879.72
2023-04-27T11:00:26.970Z,95891.28
2023-04-27T11:01:32.309Z,95888.44
2023-04-27T11:02:37.416Z,95892.03
2023-04-27T11:03:44.870Z,95903.34
2023-04-27T11:04:49.700Z,95889.97
2023-04-27T11:06:04.525Z,95897.97
2023-04-27T11:08:36.940Z,95900.63
2023-04-27T11:09:42.899Z,95890.72
2023-04-27T11:10:47.385Z,95884.19
2023-04-27T11:11:52.062Z,95891.69
2023-04-27T11:12:54.873Z,95902.28
2023-04-27T11:13:59.657Z,95895.66
2023-04-27T11:15:01.822Z,95897.25
2023-04-27T11:16:08.051Z,95895.00
2023-04-27T11:17:33.700Z,95915.72
2023-04-27T11:18:40.884Z,95932.63
2023-04-27T11:19:49.792Z,95943.63
2023-04-27T11:20:53.242Z,95932.25
2023-04-27T11:22:06.606Z,95923.00
2023-04-27T11:23:11.246Z,95914.34
2023-04-27T11:24:15.880Z,95925.22
2023-04-27T11:25:20.748Z,95962.72
2023-04-27T11:26:25.294Z,95965.31
2023-04-27T11:27:39.859Z,95960.75
2023-04-27T11:28:45.184Z,95943.66
2023-04-27T11:29:49.985Z,95935.88
2023-04-27T11:30:58.496Z,95919.63
2023-04-27T11:33:33.616Z,95899.22
2023-04-27T11:34:37.336Z,95935.28
2023-04-27T11:35:42.834Z,95886.00
2023-04-27T11:36:45.088Z,95892.34
2023-04-27T11:38:00.154Z,95854.13
2023-04-27T11:39:02.513Z,95876.22
2023-04-27T11:40:08.681Z,95882.22
2023-04-27T11:41:13.780Z,95894.56
2023-04-27T11:42:18.531Z,95896.22
2023-04-27T11:43:23.435Z,95893.09
2023-04-27T11:44:28.771Z,95868.63
2023-04-27T11:45:34.171Z,95864.81
2023-04-27T11:46:39.380Z,95864.53
2023-04-27T11:47:49.696Z,95854.25
2023-04-27T11:49:04.462Z,95855.59
2023-04-27T11:50:10.792Z,95838.44
2023-04-27T11:51:16.028Z,95859.53
2023-04-27T11:52:18.151Z,95875.34
2023-04-27T11:53:34.005Z,95882.69
2023-04-27T11:54:37.914Z,95880.13
2023-04-27T11:55:43.398Z,95908.69
2023-04-27T11:56:46.475Z,95913.88
2023-04-27T11:57:51.728Z,95888.84
2023-04-27T11:58:53.848Z,95892.19
2023-04-27T12:00:00.605Z,95900.19
2023-04-27T12:01:04.421Z,95902.63
2023-04-27T12:02:10.249Z,95890.34
2023-04-27T12:03:15.221Z,95897.91
2023-04-27T12:04:22.828Z,95885.22
2023-04-27T12:05:27.963Z,95886.19
2023-04-27T12:06:33.858Z,95872.28
2023-04-27T12:07:36.516Z,95895.81
2023-04-27T12:08:41.220Z,95886.59
2023-04-27T12:09:43.991Z,95843.91
2023-04-27T12:10:49.135Z,95860.31
2023-04-27T12:11:51.226Z,95888.25
2023-04-27T12:12:56.188Z,95896.97
2023-04-27T12:14:01.305Z,95881.50
2023-04-27T12:15:03.740Z,95881.78
2023-04-27T12:16:09.135Z,95895.94
2023-04-27T12:17:13.909Z,95879.38
2023-04-27T12:18:16.247Z,95896.34
2023-04-27T12:19:24.518Z,95887.81
2023-04-27T12:20:27.062Z,95888.97
2023-04-27T12:21:32.405Z,95897.34
2023-04-27T12:22:34.757Z,95886.34
2023-04-27T12:23:39.896Z,95915.00
2023-04-27T12:24:42.005Z,95926.09
2023-04-27T12:25:46.968Z,95905.78
2023-04-27T12:26:51.903Z,95891.75
2023-04-27T12:27:54.285Z,95914.47
2023-04-27T12:28:59.001Z,95907.69
2023-04-27T12:30:04.833Z,95936.78
2023-04-27T12:31:07.138Z,95933.53
2023-04-27T12:32:11.955Z,95917.53
2023-04-27T12:33:16.897Z,95949.78
2023-04-27T12:34:21.924Z,95928.63
2023-04-27T12:35:26.761Z,95903.59
2023-04-27T12:36:29.020Z,95909.31
2023-04-27T12:37:33.696Z,95922.19
2023-04-27T12:38:35.803Z,95905.13
2023-04-27T12:39:40.641Z,95914.19
2023-04-27T12:40:45.288Z,95919.34
2023-04-27T12:41:51.489Z,95910.78
2023-04-27T12:42:53.717Z,95918.25
2023-04-27T12:43:58.418Z,95917.91
2023-04-27T12:45:00.597Z,95916.50
2023-04-27T12:46:05.329Z,95924.94
2023-04-27T12:47:12.295Z,95899.84
2023-04-27T12:48:20.190Z,95891.31
2023-04-27T12:49:27.647Z,95899.72
2023-04-27T12:50:30.752Z,95911.19
2023-04-27T12:51:36.079Z,95886.38
2023-04-27T12:52:38.400Z,95854.97
2023-04-27T12:53:43.114Z,95854.22
2023-04-27T12:54:47.867Z,95851.91
2023-04-27T12:55:53.673Z,95863.56
2023-04-27T12:56:58.619Z,95851.84
2023-04-27T12:58:01.099Z,95864.31
2023-04-27T12:59:06.163Z,95865.97
2023-04-27T13:00:13.610Z,95860.72
2023-04-27T13:01:19.407Z,95862.75
2023-04-27T13:02:21.822Z,95859.84
2023-04-27T13:03:27.026Z,95881.22
2023-04-27T13:04:35.241Z,95867.03
2023-04-27T13:05:37.737Z,95875.38
2023-04-27T13:06:43.754Z,95867.84
2023-04-27T13:07:45.862Z,95884.53
2023-04-27T13:08:51.200Z,95865.56
2023-04-27T13:09:53.431Z,95885.75
2023-04-27T13:10:58.213Z,95868.28